createdAt,value
2018-11-11T00:00:12.613Z,99979.78
2018-11-11T00:02:41.547Z,99977.57
2018-11-11T00:05:11.134Z,99977.15
2018-11-11T00:07:40.432Z,99971.96
2018-11-11T00:10:15.023Z,99967.73
2018-11-11T00:12:43.941Z,99965.63
2018-11-11T00:15:13.965Z,99974.42
2018-11-11T00:17:45.100Z,99985.01
2018-11-11T00:20:14.122Z,99990.63
2018-11-11T00:22:43.174Z,99992.30
2018-11-11T00:25:12.111Z,99992.73
2018-11-11T00:27:41.142Z,99995.19
2018-11-11T00:30:14.307Z,99991.70
2018-11-11T00:32:43.285Z,99988.20
2018-11-11T00:35:12.225Z,99986.98
2018-11-11T00:37:41.532Z,99995.02
2018-11-11T00:40:11.653Z,99988.13
2018-11-11T00:42:40.559Z,99993.23
2018-11-11T00:45:10.173Z,99991.53
2018-11-11T00:47:39.120Z,99989.87
2018-11-11T00:50:09.241Z,99989.86
2018-11-11T00:52:38.431Z,99991.14
2018-11-11T00:55:09.309Z,99993.33
2018-11-11T00:57:38.245Z,99989.11
2018-11-11T01:00:11.894Z,99989.91
2018-11-11T01:02:41.106Z,99980.42
2018-11-11T01:05:10.968Z,99985.93
2018-11-11T01:07:40.813Z,99988.94
2018-11-11T01:10:11.717Z,99983.84
2018-11-11T01:12:41.575Z,99987.66
2018-11-11T01:15:12.156Z,99983.05
2018-11-11T01:17:41.094Z,99980.55
2018-11-11T01:20:12.716Z,99974.20
2018-11-11T01:22:41.769Z,99972.52
2018-11-11T01:25:12.538Z,99961.69
2018-11-11T01:27:41.520Z,99959.19
2018-11-11T01:30:10.452Z,99966.48
2018-11-11T01:32:39.735Z,99962.20
2018-11-11T01:35:11.053Z,99947.13
2018-11-11T01:37:40.381Z,99934.27
2018-11-11T01:40:09.381Z,99941.54
2018-11-11T01:42:38.382Z,99948.34
2018-11-11T01:45:14.347Z,99956.48
2018-11-11T01:47:44.233Z,99953.86
2018-11-11T01:50:13.820Z,99961.20
2018-11-11T01:52:43.437Z,99962.86
2018-11-11T01:55:13.497Z,99973.34
2018-11-11T01:57:43.207Z,99971.30
2018-11-11T02:00:15.548Z,99978.34
2018-11-11T02:02:46.361Z,99969.34
2018-11-11T02:05:15.565Z,99972.28
2018-11-11T02:07:45.477Z,99970.56
2018-11-11T02:10:14.389Z,99964.56
2018-11-11T02:12:44.636Z,99968.31
2018-11-11T02:15:14.593Z,99970.06
2018-11-11T02:17:43.493Z,99969.22
2018-11-11T02:20:15.125Z,99969.70
2018-11-11T02:22:44.834Z,99966.66
2018-11-11T02:25:13.724Z,99970.98
2018-11-11T02:27:42.633Z,99975.28
2018-11-11T02:30:13.961Z,99971.41
2018-11-11T02:32:43.377Z,99968.90
2018-11-11T02:35:12.573Z,99969.34
2018-11-11T02:37:41.655Z,99977.41
2018-11-11T02:40:12.398Z,99981.22
2018-11-11T02:42:41.298Z,99982.45
2018-11-11T02:45:11.610Z,99986.89
2018-11-11T02:47:40.502Z,99986.52
2018-11-11T02:50:11.249Z,99983.16
2018-11-11T02:52:40.715Z,99990.85
2018-11-11T02:55:10.232Z,99976.40
2018-11-11T02:57:39.488Z,99987.05
2018-11-11T03:00:10.636Z,99981.44
2018-11-11T03:02:39.698Z,99982.72
2018-11-11T03:05:09.453Z,99980.16
2018-11-11T03:07:38.683Z,99984.49
2018-11-11T03:10:08.397Z,99991.81
2018-11-11T03:12:37.562Z,99987.87
2018-11-11T03:15:07.376Z,99977.04
2018-11-11T03:17:36.330Z,99969.72
2018-11-11T03:20:05.685Z,99974.85
2018-11-11T03:22:34.650Z,99979.57
2018-11-11T03:25:03.667Z,99974.00
2018-11-11T03:27:32.564Z,99976.13
2018-11-11T03:30:01.482Z,99977.04
2018-11-11T03:32:30.351Z,99974.54
2018-11-11T03:34:59.265Z,99978.11
2018-11-11T03:37:28.159Z,99977.64
2018-11-11T03:39:57.081Z,99984.06
2018-11-11T03:42:25.974Z,99979.48
2018-11-11T03:44:54.905Z,99987.25
2018-11-11T03:47:23.815Z,99988.58
2018-11-11T03:49:52.773Z,99991.11
2018-11-11T03:52:21.674Z,99989.86
2018-11-11T03:54:50.599Z,99985.67
2018-11-11T03:57:19.518Z,99990.81
2018-11-11T03:59:48.433Z,99992.98
2018-11-11T04:02:17.325Z,99990.84
2018-11-11T04:04:46.265Z,99994.66
2018-11-11T04:07:15.162Z,99994.71
2018-11-11T04:09:44.073Z,99999.03
2018-11-11T04:12:12.970Z,99995.98
2018-11-11T04:14:41.894Z,99995.53
2018-11-11T04:17:10.789Z,99998.17
2018-11-11T04:19:39.710Z,100000.78
2018-11-11T04:22:14.777Z,100008.09
2018-11-11T04:24:43.716Z,99998.21
2018-11-11T04:27:12.716Z,99994.00
2018-11-11T04:29:41.658Z,100003.37
2018-11-11T04:32:11.002Z,100001.73
2018-11-11T04:34:40.334Z,99994.82
2018-11-11T04:37:09.858Z,99999.10
2018-11-11T04:39:39.024Z,99995.32
2018-11-11T04:42:07.949Z,99994.44
2018-11-11T04:44:36.886Z,99992.79
2018-11-11T04:47:05.859Z,99997.92
2018-11-11T04:49:34.898Z,100006.84
2018-11-11T04:52:03.845Z,99996.53
2018-11-11T04:54:32.746Z,99993.15
2018-11-11T04:57:01.693Z,100007.73
2018-11-11T04:59:30.604Z,100008.12
2018-11-11T05:01:59.535Z,100014.17
2018-11-11T05:04:28.467Z,100011.24
2018-11-11T05:06:57.413Z,99995.78
2018-11-11T05:09:26.327Z,100005.72
2018-11-11T05:11:55.301Z,100001.44
2018-11-11T05:14:24.208Z,99991.20
2018-11-11T05:16:53.133Z,99997.61
2018-11-11T05:19:22.059Z,99990.34
2018-11-11T05:21:51.045Z,99990.43
2018-11-11T05:24:19.905Z,99992.05
2018-11-11T05:26:48.830Z,99990.34
2018-11-11T05:29:17.722Z,99991.60
2018-11-11T05:31:46.641Z,99987.80
2018-11-11T05:34:15.557Z,99995.08
2018-11-11T05:36:44.497Z,99996.73
2018-11-11T05:39:14.335Z,99995.05
2018-11-11T05:41:43.240Z,99998.87
2018-11-11T05:44:12.166Z,100003.55
2018-11-11T05:46:41.078Z,100004.43
2018-11-11T05:49:10.021Z,100006.14
2018-11-11T05:51:38.949Z,100000.61
2018-11-11T05:54:07.838Z,100005.25
2018-11-11T05:56:36.777Z,100015.52
2018-11-11T05:59:06.090Z,100014.77
2018-11-11T06:01:35.099Z,100021.61
2018-11-11T06:04:03.984Z,100022.02
2018-11-11T06:06:32.894Z,100028.83
2018-11-11T06:09:01.777Z,100026.28
2018-11-11T06:11:30.705Z,100031.42
2018-11-11T06:13:59.622Z,100030.97
2018-11-11T06:16:28.537Z,100023.67
2018-11-11T06:18:57.457Z,100026.64
2018-11-11T06:21:26.477Z,100028.75
2018-11-11T06:23:55.394Z,100027.89
2018-11-11T06:26:24.317Z,100024.44
2018-11-11T06:28:53.302Z,100023.98
2018-11-11T06:31:22.249Z,100021.11
2018-11-11T06:33:51.158Z,100019.28
2018-11-11T06:36:20.126Z,100030.83
2018-11-11T06:38:49.045Z,100035.53
2018-11-11T06:41:17.967Z,100043.26
2018-11-11T06:43:46.857Z,100039.84
2018-11-11T06:46:15.762Z,100035.19
2018-11-11T06:48:44.660Z,100036.87
2018-11-11T06:51:13.558Z,100033.87
2018-11-11T06:53:42.473Z,100045.40
2018-11-11T06:56:11.370Z,100036.84
2018-11-11T06:58:40.294Z,100037.30
2018-11-11T07:01:09.186Z,100048.79
2018-11-11T07:04:00.014Z,100048.36
2018-11-11T07:06:29.428Z,100053.50
2018-11-11T07:08:58.470Z,100051.84
2018-11-11T07:11:27.405Z,100048.39
2018-11-11T07:13:56.355Z,100048.36
2018-11-11T07:16:25.232Z,100050.47
2018-11-11T07:18:54.148Z,100060.31
2018-11-11T07:21:23.061Z,100059.85
2018-11-11T07:23:52.012Z,100055.15
2018-11-11T07:26:20.889Z,100054.30
2018-11-11T07:28:49.817Z,100063.34
2018-11-11T07:31:18.711Z,100068.50
2018-11-11T07:33:47.612Z,100069.75
2018-11-11T07:36:16.518Z,100078.68
2018-11-11T07:38:45.463Z,100080.33
2018-11-11T07:41:14.353Z,100078.59
2018-11-11T07:43:43.273Z,100077.73
2018-11-11T07:46:12.209Z,100074.77
2018-11-11T07:48:41.127Z,100073.94
2018-11-11T07:51:10.017Z,100066.64
2018-11-11T07:53:38.932Z,100062.32
2018-11-11T07:56:07.844Z,100070.84
2018-11-11T07:58:36.822Z,100073.77
2018-11-11T08:01:05.752Z,100083.22
2018-11-11T08:03:34.706Z,100086.25
2018-11-11T08:06:03.658Z,100090.97
2018-11-11T08:08:32.587Z,100097.42
2018-11-11T08:11:12.992Z,100098.23
2018-11-11T08:13:41.821Z,100102.55
2018-11-11T08:16:10.773Z,100107.20
2018-11-11T08:18:39.744Z,100115.33
2018-11-11T08:21:08.670Z,100107.66
2018-11-11T08:23:37.591Z,100097.78
2018-11-11T08:26:06.517Z,100099.95
2018-11-11T08:28:35.457Z,100104.16
2018-11-11T08:31:04.582Z,99934.89
2018-11-11T08:33:33.859Z,100083.55
2018-11-11T08:36:02.773Z,100094.28
2018-11-11T08:38:31.774Z,100104.48
2018-11-11T08:41:00.734Z,100094.63
2018-11-11T08:43:29.678Z,100105.37
2018-11-11T08:45:58.634Z,100112.23
2018-11-11T08:48:27.562Z,100113.40
2018-11-11T08:50:56.477Z,100111.17
2018-11-11T08:53:25.427Z,100119.86
2018-11-11T08:55:54.332Z,100125.00
2018-11-11T08:58:23.252Z,100115.97
2018-11-11T09:00:52.161Z,100117.17
2018-11-11T09:03:21.114Z,100120.63
2018-11-11T09:05:50.034Z,100122.73
2018-11-11T09:08:18.972Z,100118.49
2018-11-11T09:10:47.877Z,100121.84
2018-11-11T09:13:16.809Z,100116.44
2018-11-11T09:15:45.726Z,100128.81
2018-11-11T09:18:14.669Z,100135.23
2018-11-11T09:20:43.597Z,100137.30
2018-11-11T09:23:12.534Z,100138.11
2018-11-11T09:25:41.465Z,100140.64
2018-11-11T09:28:10.386Z,100147.97
2018-11-11T09:30:39.314Z,100148.83
2018-11-11T09:33:08.336Z,100147.23
2018-11-11T09:35:37.249Z,100143.30
2018-11-11T09:38:06.231Z,100142.87
2018-11-11T09:40:35.145Z,100147.89
2018-11-11T09:43:04.129Z,100153.45
2018-11-11T09:45:33.084Z,100149.13
2018-11-11T09:48:02.106Z,100152.55
2018-11-11T09:50:30.958Z,100159.89
2018-11-11T09:52:59.874Z,100160.78
2018-11-11T09:55:28.814Z,100147.92
2018-11-11T09:57:57.737Z,100162.41
2018-11-11T10:00:26.688Z,100166.61
2018-11-11T10:05:05.874Z,100157.35
2018-11-11T10:07:41.326Z,100158.52
2018-11-11T10:12:18.075Z,100164.86
2018-11-11T10:15:51.893Z,100165.56
2018-11-11T10:18:27.897Z,100173.28
2018-11-11T10:23:04.937Z,100167.28
2018-11-11T10:25:39.509Z,100164.38
2018-11-11T10:28:17.292Z,100174.12
2018-11-11T10:30:50.174Z,100173.05
2018-11-11T10:33:27.955Z,100163.81
2018-11-11T10:36:05.369Z,100163.75
2018-11-11T10:39:09.470Z,100153.81
2018-11-11T10:42:14.069Z,100158.59
2018-11-11T10:44:49.045Z,100146.20
2018-11-11T10:47:21.991Z,100142.30
2018-11-11T10:49:54.085Z,100142.76
2018-11-11T10:52:23.232Z,100138.70
2018-11-11T10:54:52.171Z,100137.34
2018-11-11T10:57:21.036Z,100138.56
2018-11-11T10:59:49.982Z,100138.80
2018-11-11T11:02:24.946Z,100138.33
2018-11-11T11:04:59.339Z,100133.97
2018-11-11T11:07:28.232Z,100134.88
2018-11-11T11:09:57.157Z,100129.61
2018-11-11T11:12:26.094Z,100124.30
2018-11-11T11:14:55.020Z,100122.01
2018-11-11T11:17:23.926Z,100112.45
2018-11-11T11:19:52.852Z,100101.33
2018-11-11T11:22:21.741Z,100110.42
2018-11-11T11:24:50.673Z,100108.84
2018-11-11T11:27:19.659Z,100113.70
2018-11-11T11:29:48.479Z,100120.52
2018-11-11T11:32:17.601Z,100107.57
2018-11-11T11:34:46.509Z,100118.23
2018-11-11T11:37:15.397Z,100117.64
2018-11-11T11:39:44.297Z,100107.28
2018-11-11T11:42:13.229Z,100122.72
2018-11-11T11:44:42.132Z,100114.70
2018-11-11T11:47:11.079Z,100123.91
2018-11-11T11:49:39.917Z,100143.22
2018-11-11T11:52:08.931Z,100154.02
2018-11-11T11:54:37.744Z,100160.14
2018-11-11T11:57:06.658Z,100174.72
2018-11-11T11:59:35.541Z,100176.27
2018-11-11T12:02:04.677Z,100176.27
2018-11-11T12:04:33.556Z,100191.28
2018-11-11T12:07:02.474Z,100190.25
2018-11-11T12:09:31.349Z,100207.05
2018-11-11T12:12:00.273Z,100207.30
2018-11-11T12:14:29.165Z,100201.09
2018-11-11T12:16:58.096Z,100214.07
2018-11-11T12:19:26.973Z,100217.50
2018-11-11T12:21:55.925Z,100224.38
2018-11-11T12:24:24.816Z,100226.46
2018-11-11T12:26:53.716Z,100226.84
2018-11-11T12:29:22.593Z,100229.52
2018-11-11T12:31:51.504Z,100232.57
2018-11-11T12:34:20.409Z,100246.30
2018-11-11T12:36:49.309Z,100254.50
2018-11-11T12:39:18.407Z,100251.93
2018-11-11T12:41:47.156Z,100233.63
2018-11-11T12:44:16.065Z,100255.79
2018-11-11T12:46:45.000Z,100261.80
2018-11-11T12:49:13.983Z,100254.93
2018-11-11T12:51:42.886Z,100244.77
2018-11-11T12:54:11.786Z,100246.40
2018-11-11T12:56:40.694Z,100244.59
2018-11-11T12:59:09.585Z,100244.91
2018-11-11T13:01:38.524Z,100250.43
2018-11-11T13:04:07.409Z,100251.17
2018-11-11T13:06:36.341Z,100243.88
2018-11-11T13:09:08.162Z,100242.22
2018-11-11T13:11:37.172Z,100243.45
2018-11-11T13:14:06.181Z,100248.02
2018-11-11T13:16:35.081Z,100240.27
2018-11-11T13:19:04.001Z,100232.38
2018-11-11T13:21:32.918Z,100236.30
2018-11-11T13:24:01.829Z,100239.78
2018-11-11T13:26:30.721Z,100237.63
2018-11-11T13:28:59.646Z,100227.39
2018-11-11T13:31:28.548Z,100229.17
2018-11-11T13:33:57.464Z,100231.77
2018-11-11T13:36:26.350Z,100231.31
2018-11-11T13:38:55.290Z,100233.91
2018-11-11T13:41:24.173Z,100244.73
2018-11-11T13:43:53.085Z,100257.68
2018-11-11T13:46:22.115Z,100259.44
2018-11-11T13:48:50.873Z,100256.75
2018-11-11T13:51:19.749Z,100239.48
2018-11-11T13:53:48.678Z,100252.04
2018-11-11T13:56:17.594Z,100252.89
2018-11-11T13:58:46.509Z,100268.34
2018-11-11T14:01:15.396Z,100256.28
2018-11-11T14:03:44.321Z,100260.81
2018-11-11T14:06:13.225Z,100260.25
2018-11-11T14:08:42.209Z,100265.92
2018-11-11T14:11:11.164Z,100255.55
2018-11-11T14:13:40.004Z,100256.47
2018-11-11T14:16:08.893Z,100253.95
2018-11-11T14:18:37.937Z,100254.13
2018-11-11T14:21:06.669Z,100264.06
2018-11-11T14:23:35.576Z,100277.25
2018-11-11T14:26:04.577Z,100283.63
2018-11-11T14:28:33.469Z,100277.30
2018-11-11T14:31:02.350Z,100274.73
2018-11-11T14:33:31.248Z,100269.62
2018-11-11T14:36:00.199Z,100281.23
2018-11-11T14:38:29.135Z,100294.58
2018-11-11T14:40:58.010Z,100299.73
2018-11-11T14:43:26.922Z,100299.30
2018-11-11T14:45:55.821Z,100292.91
2018-11-11T14:48:24.704Z,100296.19
2018-11-11T14:50:53.590Z,100295.66
2018-11-11T14:53:22.497Z,100296.45
2018-11-11T14:55:51.397Z,100292.70
2018-11-11T14:58:20.356Z,100291.36
2018-11-11T15:00:49.184Z,100288.89
2018-11-11T15:03:19.213Z,100287.67
2018-11-11T15:05:48.377Z,100289.42
2018-11-11T15:08:17.272Z,100290.73
2018-11-11T15:10:46.165Z,100289.01
2018-11-11T15:13:15.910Z,100283.81
2018-11-11T15:15:44.816Z,100278.66
2018-11-11T15:18:13.713Z,100275.27
2018-11-11T15:20:42.721Z,100275.20
2018-11-11T15:23:11.501Z,100267.87
2018-11-11T15:25:40.417Z,100269.62
2018-11-11T15:28:09.301Z,100269.91
2018-11-11T15:30:39.099Z,100274.25
2018-11-11T15:33:08.442Z,100272.53
2018-11-11T15:35:37.401Z,100278.59
2018-11-11T15:38:06.373Z,100284.13
2018-11-11T15:40:36.613Z,100286.85
2018-11-11T15:43:05.853Z,100299.83
2018-11-11T15:45:35.445Z,100312.75
2018-11-11T15:48:04.752Z,100320.12
2018-11-11T15:50:34.445Z,100325.27
2018-11-11T15:53:04.648Z,100326.56
2018-11-11T15:55:34.785Z,100335.48
2018-11-11T15:58:03.673Z,100343.64
2018-11-11T16:00:33.810Z,100335.44
2018-11-11T16:03:02.791Z,100334.25
2018-11-11T16:05:31.685Z,100344.92
2018-11-11T16:08:01.160Z,100345.78
2018-11-11T16:10:31.149Z,100348.31
2018-11-11T16:13:00.123Z,100355.14
2018-11-11T16:15:30.517Z,100359.13
2018-11-11T16:18:01.158Z,100359.47
2018-11-11T16:20:30.678Z,100359.52
2018-11-11T16:23:00.538Z,100360.02
2018-11-11T16:25:29.473Z,100371.22
2018-11-11T16:27:58.338Z,100375.15
2018-11-11T16:30:28.772Z,100391.41
2018-11-11T16:32:58.454Z,100383.76
2018-11-11T16:35:28.086Z,100336.73
2018-11-11T16:37:57.249Z,100386.73
2018-11-11T16:40:27.495Z,100385.05
2018-11-11T16:42:56.674Z,100393.55
2018-11-11T16:45:26.793Z,100383.88
2018-11-11T16:47:55.713Z,100380.05
2018-11-11T16:50:27.517Z,100372.77
2018-11-11T16:52:57.589Z,100378.81
2018-11-11T16:55:28.265Z,100378.30
2018-11-11T16:57:57.141Z,100377.84
2018-11-11T17:00:27.551Z,100392.33
2018-11-11T17:02:57.255Z,100401.41
2018-11-11T17:05:27.456Z,100401.00
2018-11-11T17:07:56.444Z,100402.31
2018-11-11T17:10:26.762Z,100405.73
2018-11-11T17:12:57.096Z,100407.02
2018-11-11T17:15:27.434Z,100408.23
2018-11-11T17:17:57.002Z,100411.66
2018-11-11T17:20:26.504Z,100411.66
2018-11-11T17:22:56.968Z,100412.95
2018-11-11T17:25:27.386Z,100414.66
2018-11-11T17:27:56.527Z,100413.37
2018-11-11T17:30:26.558Z,100408.17
2018-11-11T17:32:55.941Z,100413.31
2018-11-11T17:35:24.804Z,100412.86
2018-11-11T17:37:53.770Z,100415.79
2018-11-11T17:40:24.906Z,100409.75
2018-11-11T17:42:54.541Z,100406.70
2018-11-11T17:45:23.453Z,100391.23
2018-11-11T17:47:52.959Z,100404.09
2018-11-11T17:50:25.082Z,100407.52
2018-11-11T17:52:54.079Z,100415.20
2018-11-11T17:55:24.240Z,100414.27
2018-11-11T17:57:53.074Z,100413.41
2018-11-11T18:00:23.192Z,100399.72
2018-11-11T18:02:52.376Z,100398.39
2018-11-11T18:05:22.493Z,100400.54
2018-11-11T18:07:51.499Z,100396.72
2018-11-11T18:10:21.422Z,100395.08
2018-11-11T18:12:50.374Z,100331.48
2018-11-11T18:15:22.965Z,100393.05
2018-11-11T18:17:51.888Z,100396.13
2018-11-11T18:20:22.274Z,100394.88
2018-11-11T18:22:52.114Z,100400.09
2018-11-11T18:25:21.012Z,100396.20
2018-11-11T18:27:50.091Z,100402.63
2018-11-11T18:30:28.067Z,100397.52
2018-11-11T18:32:57.021Z,100393.71
2018-11-11T18:35:25.930Z,100397.59
2018-11-11T18:37:55.813Z,100384.73
2018-11-11T18:40:26.040Z,100391.19
2018-11-11T18:42:54.971Z,100399.80
2018-11-11T18:45:25.545Z,100409.14
2018-11-11T18:47:54.754Z,100412.57
2018-11-11T18:50:29.322Z,100419.84
2018-11-11T18:52:58.241Z,100430.95
2018-11-11T18:55:27.170Z,100439.96
2018-11-11T18:57:56.206Z,100442.53
2018-11-11T19:00:27.403Z,100445.98
2018-11-11T19:02:56.854Z,100451.53
2018-11-11T19:05:26.440Z,100452.41
2018-11-11T19:07:56.045Z,100451.98
2018-11-11T19:10:29.174Z,100448.55
2018-11-11T19:13:02.710Z,100452.88
2018-11-11T19:15:31.781Z,100450.70
2018-11-11T19:18:00.753Z,100463.53
2018-11-11T19:20:30.116Z,100468.28
2018-11-11T19:22:59.058Z,100460.53
2018-11-11T19:25:29.133Z,100460.97
2018-11-11T19:27:59.073Z,100469.58
2018-11-11T19:30:28.805Z,100473.84
2018-11-11T19:32:57.658Z,100461.48
2018-11-11T19:35:26.622Z,100470.47
2018-11-11T19:37:56.471Z,100485.03
2018-11-11T19:40:26.480Z,100483.37
2018-11-11T19:42:56.581Z,100481.22
2018-11-11T19:45:26.707Z,100483.80
2018-11-11T19:47:55.617Z,100483.83
2018-11-11T19:50:25.724Z,100478.71
2018-11-11T19:52:55.597Z,100481.28
2018-11-11T19:55:24.821Z,100478.70
2018-11-11T19:57:53.848Z,100484.70
2018-11-11T20:00:24.637Z,100490.64
2018-11-11T20:02:54.362Z,100487.18
2018-11-11T20:05:24.061Z,100480.29
2018-11-11T20:07:54.368Z,100493.12
2018-11-11T20:10:24.192Z,100495.68
2018-11-11T20:12:53.194Z,100506.81
2018-11-11T20:15:23.617Z,100508.07
2018-11-11T20:17:52.525Z,100508.91
2018-11-11T20:20:23.246Z,100523.06
2018-11-11T20:22:53.785Z,100525.66
2018-11-11T20:25:22.939Z,100521.34
2018-11-11T20:27:52.377Z,100536.36
2018-11-11T20:30:25.001Z,100543.62
2018-11-11T20:32:53.981Z,100545.39
2018-11-11T20:35:24.322Z,100552.66
2018-11-11T20:37:53.258Z,100556.13
2018-11-11T20:40:23.257Z,100557.46
2018-11-11T20:42:52.707Z,100553.59
2018-11-11T20:45:24.126Z,100566.94
2018-11-11T20:47:54.822Z,100572.92
2018-11-11T20:50:25.174Z,100584.09
2018-11-11T20:52:56.594Z,100587.55
2018-11-11T20:55:26.557Z,100582.39
2018-11-11T20:57:56.309Z,100575.10
2018-11-11T21:00:26.757Z,100571.25
2018-11-11T21:02:55.794Z,100587.12
2018-11-11T21:05:25.949Z,100591.39
2018-11-11T21:07:54.967Z,100600.81
2018-11-11T21:10:27.186Z,100609.34
2018-11-11T21:12:56.319Z,100616.18
2018-11-11T21:15:28.393Z,100622.17
2018-11-11T21:17:57.367Z,100625.94
2018-11-11T21:20:30.509Z,100636.63
2018-11-11T21:22:59.874Z,100631.06
2018-11-11T21:25:28.911Z,100626.36
2018-11-11T21:27:58.898Z,100622.38
2018-11-11T21:30:29.193Z,100611.33
2018-11-11T21:32:58.185Z,100601.08
2018-11-11T21:35:27.207Z,100604.52
2018-11-11T21:37:56.207Z,100607.51
2018-11-11T21:40:26.104Z,100595.96
2018-11-11T21:42:55.711Z,100576.25
2018-11-11T21:45:25.581Z,100575.83
2018-11-11T21:47:54.553Z,100587.85
2018-11-11T21:50:25.657Z,100587.37
2018-11-11T21:53:03.191Z,100604.41
2018-11-11T21:55:32.069Z,100609.98
2018-11-11T21:58:00.996Z,100622.80
2018-11-11T22:00:29.926Z,100627.03
2018-11-11T22:02:58.973Z,100621.47
2018-11-11T22:05:27.877Z,100624.92
2018-11-11T22:07:56.786Z,100634.28
2018-11-11T22:10:25.706Z,100649.25
2018-11-11T22:12:54.636Z,100636.83
2018-11-11T22:15:23.546Z,100626.56
2018-11-11T22:17:52.506Z,100628.70
2018-11-11T22:20:21.442Z,100627.83
2018-11-11T22:22:50.380Z,100626.06
2018-11-11T22:25:19.317Z,100621.78
2018-11-11T22:27:48.371Z,100628.14
2018-11-11T22:30:17.250Z,100632.39
2018-11-11T22:32:46.230Z,100640.98
2018-11-11T22:35:15.173Z,100640.19
2018-11-11T22:37:44.149Z,100655.20
2018-11-11T22:40:13.537Z,100666.30
2018-11-11T22:42:42.525Z,100615.13
2018-11-11T22:45:13.872Z,100672.67
2018-11-11T22:47:42.801Z,100682.08
2018-11-11T22:50:13.237Z,100686.89
2018-11-11T22:52:42.277Z,100673.27
2018-11-11T22:55:11.530Z,100672.05
2018-11-11T22:57:40.901Z,100675.92
2018-11-11T23:00:19.001Z,100695.63
2018-11-11T23:02:47.985Z,100701.56
2018-11-11T23:05:18.218Z,100694.77
2018-11-11T23:07:47.313Z,100687.44
2018-11-11T23:10:16.334Z,100688.69
2018-11-11T23:12:45.272Z,100701.92
2018-11-11T23:15:15.422Z,100705.27
2018-11-11T23:17:44.360Z,100702.68
2018-11-11T23:20:15.022Z,100701.47
2018-11-11T23:22:43.965Z,100700.52
2018-11-11T23:25:14.246Z,100710.38
2018-11-11T23:27:43.211Z,100715.88
2018-11-11T23:30:14.766Z,100716.23
2018-11-11T23:32:44.014Z,100713.31
2018-11-11T23:35:12.946Z,100711.19
2018-11-11T23:37:42.465Z,100715.84
2018-11-11T23:40:12.488Z,100715.39
2018-11-11T23:42:42.417Z,100726.48
2018-11-11T23:45:11.346Z,100731.58
2018-11-11T23:47:40.469Z,100721.81
2018-11-11T23:50:12.719Z,100735.08
2018-11-11T23:52:41.960Z,100733.80
2018-11-11T23:55:12.602Z,100739.34
2018-11-11T23:57:41.509Z,100729.06
